createdAt,value
2018-06-13T00:00:26.417Z,5.10
2018-06-13T00:03:30.013Z,4.83
2018-06-13T00:06:33.701Z,5.43
2018-06-13T00:09:37.228Z,5.50
2018-06-13T00:12:40.856Z,4.60
2018-06-13T00:15:44.453Z,4.60
2018-06-13T00:18:48.092Z,4.73
2018-06-13T00:21:51.647Z,4.63
2018-06-13T00:24:55.205Z,4.90
2018-06-13T00:27:58.799Z,6.10
2018-06-13T00:31:02.344Z,5.23
2018-06-13T00:34:06.013Z,5.40
2018-06-13T00:37:09.576Z,5.13
2018-06-13T00:40:13.128Z,5.33
2018-06-13T00:43:16.789Z,5.57
2018-06-13T00:46:20.568Z,5.30
2018-06-13T00:49:24.172Z,5.63
2018-06-13T00:52:27.826Z,5.43
2018-06-13T00:55:31.441Z,4.97
2018-06-13T00:58:35.044Z,5.80
2018-06-13T01:01:39.169Z,5.60
2018-06-13T01:04:42.820Z,6.27
2018-06-13T01:07:46.375Z,6.40
2018-06-13T01:10:49.972Z,6.10
2018-06-13T01:13:53.502Z,6.37
2018-06-13T01:16:57.128Z,6.60
2018-06-13T01:20:00.698Z,7.20
2018-06-13T01:23:04.702Z,6.17
2018-06-13T01:26:08.276Z,6.10
2018-06-13T01:29:11.923Z,6.40
2018-06-13T01:32:15.420Z,5.67
2018-06-13T01:35:18.978Z,6.10
2018-06-13T01:38:22.565Z,5.87
2018-06-13T01:41:26.224Z,6.60
2018-06-13T01:44:29.788Z,5.93
2018-06-13T01:47:33.392Z,6.30
2018-06-13T01:50:36.992Z,5.87
2018-06-13T01:53:40.707Z,6.60
2018-06-13T01:56:44.263Z,6.40
2018-06-13T01:59:47.827Z,6.60
2018-06-13T02:02:51.386Z,6.60
2018-06-13T02:05:54.942Z,6.23
2018-06-13T02:08:58.489Z,6.60
2018-06-13T02:12:02.049Z,7.00
2018-06-13T02:15:05.648Z,6.57
2018-06-13T02:18:09.298Z,6.57
2018-06-13T02:21:12.863Z,6.27
2018-06-13T02:24:16.608Z,6.10
2018-06-13T02:27:20.198Z,5.33
2018-06-13T02:30:23.764Z,5.40
2018-06-13T02:33:27.284Z,5.50
2018-06-13T02:36:30.887Z,5.17
2018-06-13T02:39:34.424Z,5.30
2018-06-13T02:42:38.096Z,5.47
2018-06-13T02:45:41.659Z,4.67
2018-06-13T02:48:45.240Z,4.57
2018-06-13T02:51:48.780Z,5.13
2018-06-13T02:54:52.364Z,4.70
2018-06-13T02:57:55.963Z,4.30
2018-06-13T03:00:59.601Z,4.70
2018-06-13T03:04:03.193Z,5.00
2018-06-13T03:07:07.003Z,5.37
2018-06-13T03:10:10.604Z,5.57
2018-06-13T03:13:14.205Z,5.30
2018-06-13T03:16:17.843Z,5.60
2018-06-13T03:19:21.533Z,5.83
2018-06-13T03:22:25.084Z,5.77
2018-06-13T03:25:28.758Z,5.70
2018-06-13T03:28:32.418Z,5.23
2018-06-13T03:31:36.006Z,5.83
2018-06-13T03:34:39.555Z,5.70
2018-06-13T03:37:43.094Z,5.90
2018-06-13T03:40:46.715Z,5.80
2018-06-13T03:43:50.340Z,6.13
2018-06-13T03:46:53.896Z,5.67
2018-06-13T03:49:57.455Z,5.90
2018-06-13T03:53:01.150Z,6.40
2018-06-13T03:56:04.886Z,6.27
2018-06-13T03:59:08.525Z,6.30
2018-06-13T04:02:12.310Z,6.17
2018-06-13T04:05:15.896Z,6.30
2018-06-13T04:08:19.419Z,5.73
2018-06-13T04:11:22.945Z,5.90
2018-06-13T04:14:26.506Z,5.60
2018-06-13T04:17:30.035Z,5.47
2018-06-13T04:20:33.651Z,5.27
2018-06-13T04:23:37.363Z,5.23
2018-06-13T04:26:40.966Z,5.47
2018-06-13T04:29:44.525Z,6.03
2018-06-13T04:32:48.216Z,5.23
2018-06-13T04:35:51.817Z,5.67
2018-06-13T04:38:55.629Z,6.20
2018-06-13T04:41:59.256Z,6.03
2018-06-13T04:45:02.862Z,5.93
2018-06-13T04:48:06.475Z,6.20
2018-06-13T04:51:10.132Z,6.33
2018-06-13T04:54:13.725Z,5.90
2018-06-13T04:57:17.901Z,6.97
2018-06-13T05:00:21.720Z,6.50
2018-06-13T05:03:25.305Z,5.97
2018-06-13T05:06:28.916Z,6.07
2018-06-13T05:09:32.510Z,5.97
2018-06-13T05:12:36.097Z,5.17
2018-06-13T05:15:39.647Z,5.03
2018-06-13T05:18:44.345Z,5.50
2018-06-13T05:21:47.981Z,5.20
2018-06-13T05:24:51.836Z,4.30
2018-06-13T05:27:55.352Z,4.43
2018-06-13T05:30:58.974Z,4.93
2018-06-13T05:34:02.610Z,4.50
2018-06-13T05:37:06.501Z,4.23
2018-06-13T05:40:10.155Z,4.40
2018-06-13T05:43:13.767Z,3.90
2018-06-13T05:46:17.331Z,4.10
2018-06-13T05:49:22.097Z,4.40
2018-06-13T05:52:25.677Z,4.50
2018-06-13T05:55:29.361Z,4.00
2018-06-13T05:58:33.035Z,4.40
2018-06-13T06:01:36.611Z,4.33
2018-06-13T06:04:40.225Z,4.13
2018-06-13T06:07:43.771Z,4.80
2018-06-13T06:10:47.436Z,4.30
2018-06-13T06:13:51.268Z,4.17
2018-06-13T06:16:54.833Z,4.50
2018-06-13T06:19:58.366Z,5.37
2018-06-13T06:23:02.132Z,4.63
2018-06-13T06:26:05.828Z,4.40
2018-06-13T06:29:09.521Z,4.30
2018-06-13T06:32:13.070Z,4.60
2018-06-13T06:35:16.666Z,4.70
2018-06-13T06:38:20.268Z,4.10
2018-06-13T06:41:23.881Z,4.50
2018-06-13T06:44:27.512Z,4.77
2018-06-13T06:47:31.146Z,4.40
2018-06-13T06:50:34.708Z,4.60
2018-06-13T06:53:38.298Z,4.83
2018-06-13T06:56:41.911Z,4.67
2018-06-13T06:59:45.490Z,4.73
2018-06-13T07:02:49.156Z,4.57
2018-06-13T07:05:52.744Z,4.90
2018-06-13T07:08:56.523Z,5.17
2018-06-13T07:12:00.103Z,5.33
2018-06-13T07:15:03.788Z,4.90
2018-06-13T07:18:07.463Z,5.30
2018-06-13T07:21:11.183Z,5.63
2018-06-13T07:24:14.841Z,5.10
2018-06-13T07:27:18.424Z,5.17
2018-06-13T07:30:22.053Z,5.50
2018-06-13T07:33:25.753Z,5.23
2018-06-13T07:36:29.314Z,5.23
2018-06-13T07:39:32.968Z,4.87
2018-06-13T07:42:36.507Z,5.10
2018-06-13T07:45:40.139Z,4.60
2018-06-13T07:48:43.708Z,4.53
2018-06-13T07:51:47.359Z,4.60
2018-06-13T07:54:50.904Z,4.20
2018-06-13T07:57:54.484Z,4.50
2018-06-13T08:00:58.067Z,4.00
2018-06-13T08:04:01.623Z,3.90
2018-06-13T08:07:05.256Z,4.10
2018-06-13T08:10:08.874Z,4.17
2018-06-13T08:13:12.402Z,3.90
2018-06-13T08:16:15.948Z,3.93
2018-06-13T08:19:19.553Z,3.90
2018-06-13T08:22:23.137Z,3.60
2018-06-13T08:25:26.828Z,2.83
2018-06-13T08:28:30.410Z,2.97
2018-06-13T08:31:34.039Z,3.00
2018-06-13T08:34:37.603Z,3.90
2018-06-13T08:37:41.236Z,3.20
2018-06-13T08:40:44.812Z,2.77
2018-06-13T08:43:48.437Z,2.77
2018-06-13T08:46:52.007Z,2.73
2018-06-13T08:49:55.545Z,3.07
2018-06-13T08:52:59.139Z,3.40
2018-06-13T08:56:02.827Z,2.60
2018-06-13T08:59:06.408Z,2.73
2018-06-13T09:02:09.967Z,2.60
2018-06-13T09:05:13.644Z,2.70
2018-06-13T09:08:17.278Z,2.60
2018-06-13T09:11:20.827Z,3.20
2018-06-13T09:14:24.488Z,3.07
2018-06-13T09:17:28.043Z,3.00
2018-06-13T09:20:31.762Z,3.20
2018-06-13T09:23:35.555Z,3.50
2018-06-13T09:26:39.082Z,3.90
2018-06-13T09:29:42.737Z,3.87
2018-06-13T09:32:46.355Z,3.60
2018-06-13T09:35:49.934Z,3.53
2018-06-13T09:38:53.488Z,3.40
2018-06-13T09:42:01.163Z,3.40
2018-06-13T09:45:04.820Z,3.13
2018-06-13T09:48:08.390Z,3.13
2018-06-13T09:51:12.036Z,3.33
2018-06-13T09:54:15.603Z,3.30
2018-06-13T09:57:19.203Z,2.87
2018-06-13T10:00:28.079Z,3.07
2018-06-13T10:03:31.714Z,3.17
2018-06-13T10:06:35.854Z,3.33
2018-06-13T10:09:39.411Z,3.40
2018-06-13T10:12:42.989Z,3.27
2018-06-13T10:15:46.668Z,2.87
2018-06-13T10:18:50.265Z,2.70
2018-06-13T10:21:54.008Z,3.20
2018-06-13T10:24:57.663Z,3.50
2018-06-13T10:28:01.308Z,3.07
2018-06-13T10:31:04.870Z,2.73
2018-06-13T10:34:08.453Z,3.50
2018-06-13T10:37:12.129Z,2.70
2018-06-13T10:40:15.678Z,3.20
2018-06-13T10:43:19.265Z,2.97
2018-06-13T10:46:22.818Z,3.63
2018-06-13T10:49:26.474Z,3.70
2018-06-13T10:52:30.039Z,4.00
2018-06-13T10:55:33.706Z,3.40
2018-06-13T10:58:37.233Z,3.40
2018-06-13T11:01:40.909Z,4.10
2018-06-13T11:04:44.446Z,3.40
2018-06-13T11:07:47.995Z,3.50
2018-06-13T11:10:51.525Z,3.70
2018-06-13T11:13:55.157Z,3.60
2018-06-13T11:16:58.764Z,3.77
2018-06-13T11:20:02.489Z,3.77
2018-06-13T11:23:06.340Z,4.00
2018-06-13T11:26:10.098Z,3.43
2018-06-13T11:29:13.644Z,4.13
2018-06-13T11:32:17.277Z,3.80
2018-06-13T11:35:20.939Z,4.10
2018-06-13T11:38:24.580Z,4.60
2018-06-13T11:41:28.182Z,4.23
2018-06-13T11:44:31.838Z,4.13
2018-06-13T11:47:35.474Z,4.00
2018-06-13T11:50:39.040Z,4.60
2018-06-13T11:53:42.700Z,4.47
2018-06-13T11:56:46.377Z,4.73
2018-06-13T11:59:50.046Z,4.50
2018-06-13T12:02:53.685Z,4.83
2018-06-13T12:05:57.390Z,3.77
2018-06-13T12:09:00.961Z,4.03
2018-06-13T12:12:04.633Z,4.33
2018-06-13T12:15:08.310Z,4.07
2018-06-13T12:18:12.450Z,4.70
2018-06-13T12:21:16.045Z,4.57
2018-06-13T12:24:19.705Z,4.50
2018-06-13T12:27:23.213Z,4.83
2018-06-13T12:30:26.789Z,4.70
2018-06-13T12:33:32.791Z,5.93
2018-06-13T12:36:36.509Z,4.80
2018-06-13T12:39:40.178Z,4.60
2018-06-13T12:42:43.857Z,4.27
2018-06-13T12:45:47.403Z,3.83
2018-06-13T12:48:50.995Z,3.70
2018-06-13T12:51:54.566Z,3.90
2018-06-13T12:54:58.112Z,3.50
2018-06-13T12:58:01.712Z,3.53
2018-06-13T13:01:05.365Z,3.40
2018-06-13T13:04:08.997Z,3.70
2018-06-13T13:07:12.702Z,3.60
2018-06-13T13:10:18.885Z,3.60
2018-06-13T13:13:22.546Z,3.27
2018-06-13T13:16:26.112Z,3.47
2018-06-13T13:19:29.658Z,3.43
2018-06-13T13:22:33.316Z,3.30
2018-06-13T13:25:37.031Z,3.20
2018-06-13T13:28:40.680Z,3.20
2018-06-13T13:31:44.290Z,3.30
2018-06-13T13:34:47.848Z,3.80
2018-06-13T13:37:51.466Z,4.20
2018-06-13T13:40:57.743Z,4.20
2018-06-13T13:44:01.345Z,3.70
2018-06-13T13:47:04.957Z,3.27
2018-06-13T13:50:08.547Z,4.00
2018-06-13T13:53:12.234Z,3.03
2018-06-13T13:56:17.857Z,3.03
2018-06-13T13:59:21.472Z,3.67
2018-06-13T14:02:25.236Z,3.50
2018-06-13T14:05:28.842Z,3.30
2018-06-13T14:08:32.615Z,3.70
2018-06-13T14:11:36.387Z,3.40
2018-06-13T14:14:41.208Z,4.30
2018-06-13T14:17:44.893Z,3.77
2018-06-13T14:20:48.511Z,4.10
2018-06-13T14:23:52.303Z,3.80
2018-06-13T14:26:55.974Z,4.00
2018-06-13T14:29:59.688Z,4.00
2018-06-13T14:33:03.371Z,3.80
2018-06-13T14:36:06.963Z,3.30
2018-06-13T14:39:11.491Z,3.70
2018-06-13T14:42:15.136Z,3.87
2018-06-13T14:45:19.463Z,3.43
2018-06-13T14:48:23.240Z,2.97
2018-06-13T14:51:26.904Z,3.50
2018-06-13T14:54:30.638Z,3.60
2018-06-13T14:57:34.321Z,3.60
2018-06-13T15:00:37.963Z,3.50
2018-06-13T15:03:42.412Z,3.50
2018-06-13T15:06:46.009Z,3.67
2018-06-13T15:09:49.672Z,3.40
2018-06-13T15:12:53.484Z,3.70
2018-06-13T15:15:57.113Z,3.70
2018-06-13T15:19:00.756Z,4.10
2018-06-13T15:22:04.467Z,3.60
2018-06-13T15:25:08.224Z,3.90
2018-06-13T15:28:11.842Z,3.73
2018-06-13T15:31:15.511Z,4.10
2018-06-13T15:34:19.244Z,3.43
2018-06-13T15:37:22.891Z,3.70
2018-06-13T15:40:26.501Z,3.43
2018-06-13T15:43:32.477Z,3.67
2018-06-13T15:46:36.274Z,3.40
2018-06-13T15:49:52.019Z,3.20
2018-06-13T15:59:47.418Z,3.90
2018-06-13T16:02:51.117Z,3.40
2018-06-13T16:05:54.913Z,3.70
2018-06-13T16:08:58.683Z,4.20
2018-06-13T16:12:02.412Z,3.83
2018-06-13T16:15:06.264Z,3.90
2018-06-13T16:18:10.028Z,3.80
2018-06-13T16:21:13.682Z,3.50
2018-06-13T16:24:17.399Z,3.37
2018-06-13T16:27:21.052Z,3.53
2018-06-13T16:30:24.813Z,3.40
2018-06-13T16:33:28.481Z,4.40
2018-06-13T16:36:32.148Z,4.00
2018-06-13T16:39:35.872Z,4.80
2018-06-13T16:42:39.534Z,4.40
2018-06-13T16:45:43.174Z,5.00
2018-06-13T16:48:46.867Z,4.90
2018-06-13T16:51:56.349Z,5.00
2018-06-13T16:55:24.850Z,4.87
2018-06-13T16:58:28.528Z,3.83
2018-06-13T17:01:32.270Z,4.23
2018-06-13T17:04:37.530Z,5.37
2018-06-13T17:07:41.279Z,4.37
2018-06-13T17:10:44.828Z,3.90
2018-06-13T17:13:48.534Z,4.87
2018-06-13T17:16:52.248Z,4.10
2018-06-13T17:19:55.899Z,4.10
2018-06-13T17:22:59.521Z,4.10
2018-06-13T17:26:03.349Z,4.20
2018-06-13T17:29:06.999Z,4.07
2018-06-13T17:32:10.626Z,3.97
2018-06-13T17:35:14.334Z,4.20
2018-06-13T17:38:18.359Z,3.83
2018-06-13T17:41:21.978Z,4.20
2018-06-13T17:44:25.607Z,3.93
2018-06-13T17:47:29.245Z,3.53
2018-06-13T17:50:32.943Z,3.60
2018-06-13T17:53:36.670Z,3.80
2018-06-13T17:56:40.275Z,3.50
2018-06-13T17:59:43.936Z,3.90
2018-06-13T18:02:47.605Z,3.30
2018-06-13T18:05:51.410Z,3.20
2018-06-13T18:08:55.070Z,3.37
2018-06-13T18:11:58.885Z,3.27
2018-06-13T18:15:02.516Z,3.30
2018-06-13T18:18:06.449Z,3.43
2018-06-13T18:21:10.145Z,3.40
2018-06-13T18:24:13.894Z,3.00
2018-06-13T18:27:17.574Z,3.00
2018-06-13T18:30:21.313Z,2.83
2018-06-13T18:33:25.049Z,2.63
2018-06-13T18:36:28.644Z,3.20
2018-06-13T18:39:32.259Z,3.37
2018-06-13T18:42:35.996Z,2.90
2018-06-13T18:45:39.770Z,2.83
2018-06-13T18:48:43.526Z,2.90
2018-06-13T18:51:47.288Z,3.33
2018-06-13T18:54:50.939Z,2.77
2018-06-13T18:57:54.718Z,3.20
2018-06-13T19:00:58.769Z,2.90
2018-06-13T19:04:02.484Z,2.60
2018-06-13T19:07:06.147Z,2.93
2018-06-13T19:10:09.885Z,3.37
2018-06-13T19:13:13.666Z,3.00
2018-06-13T19:16:17.331Z,3.10
2018-06-13T19:19:21.321Z,3.60
2018-06-13T19:22:25.125Z,3.80
2018-06-13T19:25:28.903Z,3.73
2018-06-13T19:28:32.831Z,3.50
2018-06-13T19:31:36.499Z,4.00
2018-06-13T19:34:40.308Z,3.60
2018-06-13T19:37:43.978Z,3.47
2018-06-13T19:40:47.633Z,3.40
2018-06-13T19:43:51.520Z,3.80
2018-06-13T19:46:59.500Z,3.37
2018-06-13T19:50:03.263Z,3.17
2018-06-13T19:53:12.050Z,2.80
2018-06-13T19:56:17.939Z,2.90
2018-06-13T19:59:21.749Z,2.80
2018-06-13T20:02:29.565Z,3.03
2018-06-13T20:05:39.599Z,3.10
2018-06-13T20:08:43.171Z,3.40
2018-06-13T20:11:47.853Z,3.60
2018-06-13T20:14:56.950Z,3.23
2018-06-13T20:18:06.229Z,3.40
2018-06-13T20:21:10.824Z,3.43
2018-06-13T20:24:14.710Z,3.20
2018-06-13T20:27:23.539Z,3.27
2018-06-13T20:30:32.501Z,3.30
2018-06-13T20:33:36.240Z,3.10
2018-06-13T20:36:39.900Z,3.30
2018-06-13T20:39:43.669Z,3.03
2018-06-13T20:42:50.095Z,3.53
2018-06-13T20:45:53.864Z,3.50
2018-06-13T20:48:57.458Z,3.07
2018-06-13T20:52:01.136Z,3.27
2018-06-13T20:55:04.815Z,2.97
2018-06-13T20:58:08.490Z,3.30
2018-06-13T21:01:12.191Z,3.57
2018-06-13T21:04:15.816Z,3.70
2018-06-13T21:07:20.387Z,3.57
2018-06-13T21:10:24.020Z,3.73
2018-06-13T21:13:27.623Z,3.40
2018-06-13T21:16:32.120Z,3.23
2018-06-13T21:19:35.716Z,3.30
2018-06-13T21:22:39.451Z,3.27
2018-06-13T21:25:43.240Z,4.00
2018-06-13T21:28:46.856Z,3.50
2018-06-13T21:31:50.476Z,3.23
2018-06-13T21:34:54.168Z,3.50
2018-06-13T21:37:57.814Z,3.70
2018-06-13T21:41:01.343Z,3.57
2018-06-13T21:44:04.911Z,3.40
2018-06-13T21:47:08.541Z,3.60
2018-06-13T21:50:12.160Z,3.40
2018-06-13T21:53:15.661Z,3.70
2018-06-13T21:56:19.292Z,4.00
2018-06-13T21:59:23.041Z,4.33
2018-06-13T22:02:26.696Z,4.20
2018-06-13T22:05:30.409Z,3.80
2018-06-13T22:08:33.985Z,4.33
2018-06-13T22:11:43.827Z,4.20
2018-06-13T22:14:47.376Z,4.10
2018-06-13T22:17:51.168Z,4.10
2018-06-13T22:20:54.727Z,4.53
2018-06-13T22:23:58.441Z,5.10
2018-06-13T22:27:02.073Z,4.50
2018-06-13T22:30:05.692Z,4.03
2018-06-13T22:33:09.252Z,4.40
2018-06-13T22:36:12.765Z,4.60
2018-06-13T22:39:16.440Z,4.70
2018-06-13T22:42:20.120Z,4.80
2018-06-13T22:45:23.650Z,4.53
2018-06-13T22:48:27.310Z,4.63
2018-06-13T22:51:31.172Z,4.50
2018-06-13T22:54:34.692Z,4.77
2018-06-13T22:57:38.293Z,5.30
2018-06-13T23:01:06.502Z,5.50
2018-06-13T23:04:10.187Z,4.80
2018-06-13T23:07:13.707Z,5.43
2018-06-13T23:10:17.406Z,5.17
2018-06-13T23:13:20.987Z,5.40
2018-06-13T23:16:24.546Z,5.33
2018-06-13T23:19:28.142Z,5.93
2018-06-13T23:22:31.707Z,5.57
2018-06-13T23:25:35.392Z,5.30
2018-06-13T23:28:39.066Z,5.13
2018-06-13T23:31:42.631Z,5.60
2018-06-13T23:34:46.160Z,5.30
2018-06-13T23:37:49.784Z,5.40
2018-06-13T23:40:53.303Z,5.13
2018-06-13T23:43:56.942Z,5.33
2018-06-13T23:47:00.447Z,5.10
2018-06-13T23:50:04.227Z,5.47
2018-06-13T23:53:07.922Z,6.10
2018-06-13T23:56:11.402Z,5.50
2018-06-13T23:59:14.984Z,5.80
